Time;durP1;ratioP1;P1;durP2;ratioP2;P2;SDS_P1;SDS_P2;PMS_P1;PMS_P2;Temp;Humidity;BMP_temperature;BMP_pressure;BME280_temperature;BME280_humidity;BME280_pressure;Samples;Min_cycle;Max_cycle;Signal;HPM_P1;HPM_P2
2023/05/04 00:01:14;;;;;;;14.65;5.18;;;;;;;9.14;100.00;101936.44;4933199;29;20457;-78
2023/05/04 00:03:40;;;;;;;7.88;5.60;;;;;;;9.08;100.00;101933.16;4935778;29;20062;-78
2023/05/04 00:06:06;;;;;;;10.95;5.10;;;;;;;9.09;100.00;101943.13;4938041;29;20456;-78
2023/05/04 00:08:32;;;;;;;9.85;5.50;;;;;;;9.02;100.00;101937.13;4929139;29;20051;-78
2023/05/04 00:10:57;;;;;;;11.35;6.18;;;;;;;9.03;100.00;101936.13;4912673;29;20485;-78
2023/05/04 00:13:23;;;;;;;13.18;5.75;;;;;;;8.92;100.00;101928.56;4936353;29;20063;-78
2023/05/04 00:15:48;;;;;;;6.85;5.38;;;;;;;8.93;100.00;101927.56;4931922;29;20059;-78
2023/05/04 00:18:14;;;;;;;12.88;5.57;;;;;;;9.03;100.00;101919.75;4930563;29;20042;-78
2023/05/04 00:20:39;;;;;;;15.43;5.18;;;;;;;8.98;100.00;101921.88;4931112;29;20039;-77
2023/05/04 00:23:05;;;;;;;8.00;5.55;;;;;;;8.92;100.00;101919.47;4925499;28;20051;-77
2023/05/04 00:25:30;;;;;;;7.82;5.00;;;;;;;8.98;100.00;101920.00;4930409;29;20689;-77
2023/05/04 00:27:56;;;;;;;8.13;5.38;;;;;;;8.95;100.00;101912.00;4905391;29;20043;-77
2023/05/04 00:30:22;;;;;;;8.02;4.47;;;;;;;8.99;100.00;101910.84;4936235;29;20062;-77
2023/05/04 00:32:47;;;;;;;14.95;6.22;;;;;;;8.90;100.00;101911.34;4933129;29;20480;-78
2023/05/04 00:35:12;;;;;;;8.55;5.45;;;;;;;8.89;100.00;101904.16;4904807;29;20047;-78
2023/05/04 00:37:38;;;;;;;11.52;5.60;;;;;;;8.89;100.00;101904.16;4935043;29;20476;-77
2023/05/04 00:40:04;;;;;;;11.88;5.50;;;;;;;8.85;100.00;101896.19;4932218;29;20108;-78
2023/05/04 00:42:29;;;;;;;19.55;5.40;;;;;;;8.78;100.00;101902.00;4903898;29;20036;-77
2023/05/04 00:44:55;;;;;;;11.63;5.47;;;;;;;8.78;100.00;101896.53;4920518;29;20071;-77
2023/05/04 00:47:21;;;;;;;14.90;6.07;;;;;;;8.80;100.00;101897.31;4905434;29;20126;-77
2023/05/04 00:49:46;;;;;;;10.10;4.80;;;;;;;8.81;100.00;101887.31;4933934;29;20050;-77
2023/05/04 00:52:13;;;;;;;6.72;4.78;;;;;;;8.70;100.00;101889.72;4939112;29;20043;-77
2023/05/04 00:54:41;;;;;;;9.77;5.78;;;;;;;8.68;100.00;101883.47;4929095;29;20036;-77
2023/05/04 00:57:07;;;;;;;13.27;5.72;;;;;;;8.68;100.00;101872.56;4928000;29;20179;-77
2023/05/04 00:59:33;;;;;;;14.05;5.75;;;;;;;8.70;100.00;101870.63;4914741;29;20091;-77
2023/05/04 01:01:58;;;;;;;12.55;5.45;;;;;;;8.64;100.00;101871.81;4934117;29;20039;-77
2023/05/04 01:04:24;;;;;;;14.55;4.72;;;;;;;8.69;100.00;101867.03;4934406;29;20035;-76
2023/05/04 01:07:13;;;;;;;8.18;5.32;;;;;;;8.68;100.00;101872.56;4933118;29;20119;-77
2023/05/04 01:09:46;;;;;;;12.52;4.97;;;;;;;8.68;100.00;101875.28;4919286;29;20384;-77
2023/05/04 01:12:18;;;;;;;10.05;4.88;;;;;;;8.58;100.00;101855.81;4933864;29;20036;-77
2023/05/04 01:14:45;;;;;;;15.90;5.60;;;;;;;8.69;100.00;101868.84;4926766;29;20111;-78
2023/05/04 01:17:12;;;;;;;13.05;5.10;;;;;;;8.56;100.00;101863.16;4932781;29;20123;-78
2023/05/04 01:19:38;;;;;;;11.60;5.63;;;;;;;8.55;100.00;101858.69;4928094;29;20039;-79
2023/05/04 01:22:03;;;;;;;7.95;5.38;;;;;;;8.53;100.00;101856.03;4899432;29;20366;-79
2023/05/04 01:24:29;;;;;;;13.77;6.07;;;;;;;8.55;100.00;101856.84;4914135;28;20048;-79
2023/05/04 01:27:04;;;;;;;12.02;5.28;;;;;;;8.46;100.00;101854.59;4894055;29;20040;-78
2023/05/04 01:29:55;;;;;;;15.73;5.38;;;;;;;8.55;100.00;101862.28;4902575;29;20035;-78
2023/05/04 01:32:22;;;;;;;10.48;5.68;;;;;;;8.51;100.00;101860.72;4901547;29;20051;-78
2023/05/04 01:34:47;;;;;;;11.52;5.18;;;;;;;8.42;100.00;101853.84;4892381;29;20048;-78
2023/05/04 01:37:13;;;;;;;13.18;5.05;;;;;;;8.47;100.00;101859.09;4897148;29;20087;-78
2023/05/04 01:39:39;;;;;;;14.55;6.15;;;;;;;8.40;100.00;101852.19;4911210;29;20044;-78
2023/05/04 01:42:06;;;;;;;12.05;5.80;;;;;;;8.43;100.00;101857.53;4872492;29;20131;-78
2023/05/04 01:44:31;;;;;;;10.93;5.40;;;;;;;8.38;100.00;101854.09;4917460;29;20599;-78
2023/05/04 01:46:57;;;;;;;17.15;6.40;;;;;;;8.37;100.00;101855.09;4900692;29;20044;-78
2023/05/04 01:49:22;;;;;;;9.40;5.15;;;;;;;8.19;100.00;101857.81;4901245;29;20041;-78
2023/05/04 01:51:48;;;;;;;12.63;5.40;;;;;;;8.27;100.00;101852.84;4917396;29;20044;-78
2023/05/04 01:54:14;;;;;;;10.95;5.30;;;;;;;8.31;100.00;101847.22;4901997;29;20432;-78
2023/05/04 01:56:40;;;;;;;12.13;5.72;;;;;;;8.16;100.00;101844.34;4899604;29;20084;-79
2023/05/04 01:59:06;;;;;;;12.80;5.60;;;;;;;8.12;100.00;101848.22;4913501;29;20503;-78
2023/05/04 02:01:31;;;;;;;13.38;5.75;;;;;;;8.11;100.00;101851.88;4907473;29;20040;-77
2023/05/04 02:03:57;;;;;;;15.50;6.45;;;;;;;8.04;100.00;101856.78;4913306;29;20194;-78
2023/05/04 02:06:22;;;;;;;16.60;5.57;;;;;;;7.95;100.00;101856.38;4910647;29;20417;-77
2023/05/04 02:08:47;;;;;;;11.70;6.22;;;;;;;7.96;100.00;101842.66;4913725;29;20063;-78
2023/05/04 02:11:16;;;;;;;10.85;5.70;;;;;;;8.00;100.00;101855.19;4878853;29;20409;-78
2023/05/04 02:13:41;;;;;;;12.88;6.13;;;;;;;7.97;100.00;101854.44;4893935;29;20034;-77
2023/05/04 02:16:07;;;;;;;8.50;5.35;;;;;;;7.88;100.00;101840.31;4891956;29;20048;-77
2023/05/04 02:18:33;;;;;;;12.73;6.32;;;;;;;7.91;100.00;101834.72;4895225;29;20029;-77
2023/05/04 02:20:58;;;;;;;20.95;6.55;;;;;;;7.99;100.00;101847.09;4915416;29;20043;-77
2023/05/04 02:23:24;;;;;;;11.85;6.10;;;;;;;8.05;100.00;101842.19;4922727;28;20456;-77
2023/05/04 02:25:49;;;;;;;11.65;5.80;;;;;;;7.82;100.00;101839.75;4929812;29;20740;-77
2023/05/04 02:28:15;;;;;;;13.27;6.32;;;;;;;7.89;100.00;101849.41;4934664;29;20040;-77
2023/05/04 02:30:41;;;;;;;9.25;5.00;;;;;;;7.89;100.00;101841.22;4932025;29;20039;-77
2023/05/04 02:33:06;;;;;;;11.05;6.05;;;;;;;7.89;100.00;101839.38;4919028;29;20042;-77
2023/05/04 02:35:32;;;;;;;15.10;6.53;;;;;;;7.92;100.00;101830.16;4932582;29;20047;-77
2023/05/04 02:37:57;;;;;;;8.95;5.97;;;;;;;7.82;100.00;101832.50;4927831;29;20048;-77
2023/05/04 02:40:23;;;;;;;15.65;6.57;;;;;;;7.79;100.00;101824.47;4923985;29;20040;-78
2023/05/04 02:42:48;;;;;;;15.57;6.05;;;;;;;7.74;100.00;101818.38;4906707;29;20036;-77
2023/05/04 02:45:14;;;;;;;19.05;6.03;;;;;;;7.73;100.00;101825.66;4882286;29;20031;-77
2023/05/04 02:47:39;;;;;;;11.98;6.20;;;;;;;7.79;100.00;101826.28;4934777;29;20040;-77
2023/05/04 02:50:05;;;;;;;10.80;5.93;;;;;;;7.77;100.00;101825.50;4916297;29;20123;-78
2023/05/04 02:52:31;;;;;;;15.10;7.10;;;;;;;7.70;100.00;101820.34;4932587;29;20054;-77
2023/05/04 02:54:57;;;;;;;14.10;6.70;;;;;;;7.72;100.00;101821.19;4932437;29;20040;-76
2023/05/04 02:57:23;;;;;;;12.25;5.55;;;;;;;7.67;100.00;101822.34;4930913;29;20035;-79
2023/05/04 02:59:48;;;;;;;17.25;6.57;;;;;;;7.64;100.00;101830.69;4930701;29;20082;-77
2023/05/04 03:02:13;;;;;;;7.97;5.63;;;;;;;7.68;100.00;101837.75;4895219;29;20047;-79
2023/05/04 03:04:39;;;;;;;12.43;6.57;;;;;;;7.64;100.00;101827.97;4908699;29;20476;-77
2023/05/04 03:07:04;;;;;;;18.45;6.30;;;;;;;7.62;100.00;101819.00;4932997;29;20552;-77
2023/05/04 03:09:30;;;;;;;21.42;6.85;;;;;;;7.57;100.00;101829.25;4915180;29;20155;-77
2023/05/04 03:11:55;;;;;;;19.95;6.75;;;;;;;7.54;100.00;101827.56;4927750;29;20138;-77
2023/05/04 03:14:21;;;;;;;10.93;6.45;;;;;;;7.54;100.00;101816.66;4928877;29;20040;-78
2023/05/04 03:16:46;;;;;;;15.07;7.13;;;;;;;7.53;100.00;101817.63;4926542;29;20067;-77
2023/05/04 03:19:12;;;;;;;11.88;5.63;;;;;;;7.46;100.00;101818.88;4929109;29;20489;-78
2023/05/04 03:21:37;;;;;;;11.95;5.72;;;;;;;7.48;100.00;101823.31;4917114;29;20035;-79
2023/05/04 03:24:03;;;;;;;15.40;6.63;;;;;;;7.47;100.00;101820.66;4915134;29;20054;-79
2023/05/04 03:26:28;;;;;;;12.30;5.97;;;;;;;7.44;100.00;101813.50;4929358;29;20132;-78
2023/05/04 03:28:54;;;;;;;15.80;6.68;;;;;;;7.41;100.00;101813.69;4934957;29;20118;-78
2023/05/04 03:31:19;;;;;;;13.50;6.63;;;;;;;7.36;100.00;101813.91;4916677;29;20047;-78
2023/05/04 03:33:45;;;;;;;13.75;6.53;;;;;;;7.37;100.00;101812.06;4933871;29;20110;-78
2023/05/04 03:36:10;;;;;;;13.60;5.70;;;;;;;7.41;100.00;101819.13;4935771;29;20051;-78
2023/05/04 03:38:35;;;;;;;15.38;6.55;;;;;;;7.29;100.00;101808.84;4934795;29;20050;-78
2023/05/04 03:41:01;;;;;;;12.30;7.18;;;;;;;7.30;100.00;101816.06;4902293;29;20036;-79
2023/05/04 03:43:26;;;;;;;21.63;6.55;;;;;;;7.27;100.00;101816.22;4920218;29;20067;-79
2023/05/04 03:45:52;;;;;;;12.68;6.80;;;;;;;7.27;100.00;101814.38;4897418;29;20064;-79
2023/05/04 03:48:17;;;;;;;15.27;7.20;;;;;;;7.23;100.00;101814.59;4912591;29;20501;-78
2023/05/04 03:50:43;;;;;;;20.13;6.25;;;;;;;7.20;100.00;101810.19;4903308;29;20031;-79
2023/05/04 03:53:08;;;;;;;12.27;6.28;;;;;;;7.25;100.00;101810.84;4935316;29;20099;-79
2023/05/04 03:55:34;;;;;;;14.60;6.97;;;;;;;7.13;100.00;101797.81;4915364;29;20174;-79
2023/05/04 03:57:59;;;;;;;11.18;6.70;;;;;;;7.21;100.00;101802.91;4924655;29;20131;-79
2023/05/04 04:00:25;;;;;;;13.05;7.15;;;;;;;7.15;100.00;101794.06;4903731;29;20138;-79
2023/05/04 04:02:50;;;;;;;10.95;6.22;;;;;;;7.20;100.00;101793.84;4930536;29;20054;-79
2023/05/04 04:05:16;;;;;;;17.50;7.00;;;;;;;7.24;100.00;101806.34;4931641;29;20058;-79
2023/05/04 04:07:41;;;;;;;14.32;6.40;;;;;;;7.09;100.00;101797.09;4927707;29;20047;-80
2023/05/04 04:10:07;;;;;;;12.55;5.75;;;;;;;7.19;100.00;101805.69;4922215;29;20337;-79
2023/05/04 04:12:34;;;;;;;9.52;6.32;;;;;;;7.18;100.00;101785.75;4929313;29;20130;-80
2023/05/04 04:15:03;;;;;;;11.10;6.28;;;;;;;7.17;100.00;101794.88;4930647;29;20046;-79
2023/05/04 04:17:28;;;;;;;14.65;7.03;;;;;;;7.22;100.00;101796.50;4916541;29;20086;-79
2023/05/04 04:19:54;;;;;;;20.23;6.70;;;;;;;7.26;100.00;101792.66;4929711;29;20130;-81
2023/05/04 04:22:19;;;;;;;17.40;6.90;;;;;;;7.24;100.00;101784.56;4902055;29;20098;-79
2023/05/04 04:24:45;;;;;;;10.70;6.60;;;;;;;7.27;100.00;101788.97;4901758;29;20048;-79
2023/05/04 04:27:10;;;;;;;12.75;6.28;;;;;;;7.37;100.00;101801.16;4912335;29;20536;-78
2023/05/04 04:29:36;;;;;;;18.33;7.00;;;;;;;7.43;100.00;101799.97;4899479;29;20035;-79
2023/05/04 04:32:02;;;;;;;10.95;6.47;;;;;;;7.38;100.00;101796.59;4927671;29;20043;-79
2023/05/04 04:34:27;;;;;;;15.50;6.40;;;;;;;7.35;100.00;101784.03;4900288;29;20048;-80
2023/05/04 04:36:52;;;;;;;17.48;7.68;;;;;;;7.41;100.00;101791.91;4932436;29;20035;-78
2023/05/04 04:39:18;;;;;;;10.52;6.78;;;;;;;7.44;100.00;101788.97;4930738;29;20083;-77
2023/05/04 04:41:43;;;;;;;11.15;6.60;;;;;;;7.55;100.00;101789.31;4929210;29;20063;-79
2023/05/04 04:44:09;;;;;;;11.10;6.68;;;;;;;7.57;100.00;101774.75;4932456;29;20042;-79
2023/05/04 04:46:34;;;;;;;18.38;6.40;;;;;;;7.67;100.00;101786.94;4915197;29;20074;-77
2023/05/04 04:49:00;;;;;;;12.82;7.07;;;;;;;7.73;100.00;101782.03;4933033;29;20036;-77
2023/05/04 04:51:26;;;;;;;14.43;7.03;;;;;;;7.81;100.00;101776.19;4916998;29;20099;-79
2023/05/04 04:53:51;;;;;;;13.32;6.57;;;;;;;7.89;100.00;101782.13;4927926;29;20091;-78
2023/05/04 04:56:17;;;;;;;11.95;6.22;;;;;;;7.95;100.00;101770.00;4896966;29;20539;-78
2023/05/04 04:58:43;;;;;;;12.23;6.78;;;;;;;8.01;100.00;101776.97;4915162;29;20106;-80
2023/05/04 05:01:09;;;;;;;16.95;6.80;;;;;;;8.13;100.00;101779.03;4939968;28;20123;-78
2023/05/04 05:03:35;;;;;;;30.33;7.05;;;;;;;8.06;100.00;101773.03;4926889;29;20136;-77
2023/05/04 05:06:01;;;;;;;12.20;6.95;;;;;;;8.22;100.00;101781.28;4928006;29;20066;-77
2023/05/04 05:08:27;;;;;;;22.85;7.40;;;;;;;8.31;100.00;101779.88;4941303;29;20047;-78
2023/05/04 05:10:52;;;;;;;20.05;7.65;;;;;;;8.40;100.00;101779.38;4913921;29;20480;-77
2023/05/04 05:13:18;;;;;;;19.40;7.43;;;;;;;8.36;100.00;101782.34;4927879;29;20163;-78
2023/05/04 05:15:43;;;;;;;28.75;7.57;;;;;;;8.44;100.00;101775.56;4931573;29;20032;-77
2023/05/04 05:18:09;;;;;;;14.82;7.28;;;;;;;8.61;100.00;101782.81;4927943;29;20338;-77
2023/05/04 05:20:34;;;;;;;26.08;7.97;;;;;;;8.67;100.00;101776.09;4910017;29;20056;-78
2023/05/04 05:22:59;;;;;;;16.33;7.28;;;;;;;8.74;100.00;101779.38;4922178;28;20044;-78
2023/05/04 05:25:25;;;;;;;22.00;8.02;;;;;;;8.83;100.00;101781.59;4896211;29;20031;-77
2023/05/04 05:27:52;;;;;;;20.75;7.95;;;;;;;8.99;100.00;101778.88;4929678;29;20044;-77
2023/05/04 05:30:18;;;;;;;15.60;7.90;;;;;;;8.99;100.00;101777.00;4940160;29;20061;-77
2023/05/04 05:32:43;;;;;;;20.10;7.78;;;;;;;9.20;100.00;101782.22;4920940;29;20052;-77
2023/05/04 05:35:09;;;;;;;28.65;8.68;;;;;;;9.25;100.00;101781.91;4941480;29;20043;-77
2023/05/04 05:37:34;;;;;;;30.55;8.32;;;;;;;9.41;100.00;101784.63;4937670;29;20098;-78
2023/05/04 05:40:05;;;;;;;11.65;7.13;;;;;;;9.45;100.00;101784.38;4936323;29;20035;-78
2023/05/04 05:42:32;;;;;;;14.73;7.85;;;;;;;9.61;100.00;101783.44;4927892;29;20055;-78
2023/05/04 05:44:57;;;;;;;16.27;8.93;;;;;;;9.57;100.00;101778.19;4935984;29;20051;-77
2023/05/04 05:47:23;;;;;;;23.45;7.47;;;;;;;9.50;100.00;101784.09;4931107;29;20396;-78
2023/05/04 05:49:48;;;;;;;10.43;7.10;;;;;;;9.61;100.00;101784.34;4935106;29;20044;-77
2023/05/04 05:52:13;;;;;;;12.57;6.55;;;;;;;9.63;100.00;101786.97;4920161;29;20040;-77
2023/05/04 05:54:40;;;;;;;18.88;7.55;;;;;;;9.87;100.00;101781.84;4920681;29;20131;-78
2023/05/04 05:57:05;;;;;;;13.05;7.38;;;;;;;9.98;100.00;101789.41;4936827;29;20510;-77
2023/05/04 05:59:31;;;;;;;12.95;6.72;;;;;;;10.13;100.00;101780.22;4940218;29;20035;-78
2023/05/04 06:01:56;;;;;;;11.50;6.65;;;;;;;10.09;100.00;101784.16;4934258;29;20054;-78
2023/05/04 06:04:21;;;;;;;27.95;7.03;;;;;;;10.41;100.00;101773.97;4917711;29;20134;-78
2023/05/04 06:06:47;;;;;;;15.77;7.00;;;;;;;10.66;100.00;101772.38;4927437;29;20057;-79
2023/05/04 06:09:12;;;;;;;17.33;7.90;;;;;;;10.87;100.00;101770.09;4912263;29;20062;-78
2023/05/04 06:11:38;;;;;;;10.40;6.28;;;;;;;10.78;100.00;101767.97;4935833;29;20054;-80
2023/05/04 06:14:03;;;;;;;21.98;6.65;;;;;;;10.68;100.00;101764.06;4934794;29;20501;-80
2023/05/04 06:16:28;;;;;;;12.98;6.28;;;;;;;10.94;100.00;101762.34;4917123;29;20126;-81
2023/05/04 06:18:54;;;;;;;13.50;7.20;;;;;;;11.01;100.00;101764.56;4934789;29;20091;-80
2023/05/04 06:21:20;;;;;;;18.58;7.32;;;;;;;11.16;100.00;101757.19;4921890;29;20123;-79
2023/05/04 06:23:46;;;;;;;16.10;6.68;;;;;;;11.29;100.00;101749.00;4935835;28;20066;-81
2023/05/04 06:26:12;;;;;;;12.43;6.32;;;;;;;11.47;100.00;101751.50;4921651;29;20044;-80
2023/05/04 06:28:37;;;;;;;9.18;5.70;;;;;;;11.55;100.00;101749.09;4937960;29;20055;-81
2023/05/04 06:31:03;;;;;;;10.43;6.00;;;;;;;11.71;100.00;101744.31;4919417;29;20051;-81
2023/05/04 06:33:28;;;;;;;38.00;6.88;;;;;;;11.62;100.00;101739.44;4928708;29;20088;-78
2023/05/04 06:35:54;;;;;;;15.60;6.45;;;;;;;11.71;100.00;101746.19;4934593;29;20045;-79
2023/05/04 06:38:19;;;;;;;13.13;7.22;;;;;;;11.92;100.00;101739.22;4933698;29;20036;-78
2023/05/04 06:40:45;;;;;;;12.55;6.25;;;;;;;12.41;100.00;101737.56;4917287;29;20063;-79
2023/05/04 06:43:10;;;;;;;25.58;5.97;;;;;;;12.32;100.00;101738.22;4921404;29;20031;-79
2023/05/04 06:45:36;;;;;;;13.50;6.20;;;;;;;12.47;100.00;101744.47;4927418;29;20048;-79
2023/05/04 06:48:03;;;;;;;18.85;6.30;;;;;;;12.54;100.00;101734.78;4935436;29;20032;-78
2023/05/04 06:50:29;;;;;;;13.73;5.55;;;;;;;12.69;100.00;101730.91;4934981;29;20058;-77
2023/05/04 06:53:09;;;;;;;15.23;7.00;;;;;;;12.91;100.00;101736.69;4935065;29;20036;-76
2023/05/04 06:55:35;;;;;;;16.80;5.78;;;;;;;12.88;100.00;101737.78;4934537;29;20032;-78
2023/05/04 06:58:02;;;;;;;21.70;5.80;;;;;;;13.37;97.15;101733.22;4932374;29;20043;-79
2023/05/04 07:00:27;;;;;;;13.75;5.90;;;;;;;13.39;98.99;101737.59;4935304;29;20239;-77
2023/05/04 07:02:53;;;;;;;16.30;5.57;;;;;;;13.96;95.49;101732.28;4934872;29;20507;-77
2023/05/04 07:05:22;;;;;;;12.88;5.68;;;;;;;14.15;89.35;101731.69;4917702;29;20036;-77
2023/05/04 07:07:48;;;;;;;12.70;5.25;;;;;;;13.65;91.33;101733.81;4933600;29;20078;-77
2023/05/04 07:10:14;;;;;;;14.57;6.20;;;;;;;14.10;90.23;101725.66;4936244;29;20043;-77
2023/05/04 07:12:40;;;;;;;6.65;4.85;;;;;;;14.29;87.78;101722.31;4926557;29;20043;-77
2023/05/04 07:15:10;;;;;;;19.00;5.45;;;;;;;14.06;84.69;101726.91;4934429;29;20059;-77
2023/05/04 07:17:38;;;;;;;19.48;5.45;;;;;;;14.32;85.72;101719.31;4932056;29;20644;-77
2023/05/04 07:20:05;;;;;;;26.17;5.80;;;;;;;14.33;85.68;101712.78;4933080;29;20042;-77
2023/05/04 07:22:32;;;;;;;18.63;5.60;;;;;;;14.78;83.03;101718.31;4934540;29;20039;-77
2023/05/04 07:24:58;;;;;;;10.00;5.45;;;;;;;15.39;77.22;101703.94;4917099;29;20047;-77
2023/05/04 07:27:23;;;;;;;11.40;5.00;;;;;;;15.08;79.52;101702.94;4930169;29;20067;-77
2023/05/04 07:29:51;;;;;;;8.77;5.40;;;;;;;15.18;79.85;101698.41;4933474;29;20121;-77
2023/05/04 07:32:18;;;;;;;13.68;5.53;;;;;;;15.27;80.44;101688.47;4918868;29;20046;-77
2023/05/04 07:34:44;;;;;;;17.38;6.10;;;;;;;15.27;78.55;101687.59;4936007;29;20110;-77
2023/05/04 07:37:09;;;;;;;15.82;6.57;;;;;;;15.00;80.05;101695.34;4933901;29;20036;-77
2023/05/04 07:39:35;;;;;;;15.88;5.43;;;;;;;15.43;81.74;101690.78;4934150;29;20047;-77
2023/05/04 07:42:10;;;;;;;18.92;4.70;;;;;;;15.96;71.61;101692.63;4935586;29;20036;-76
2023/05/04 07:44:36;;;;;;;8.20;4.93;;;;;;;15.99;71.99;101697.91;4923470;29;20043;-76
2023/05/04 07:47:01;;;;;;;6.55;3.75;;;;;;;15.74;73.17;101693.59;4901806;29;20036;-76
2023/05/04 07:49:27;;;;;;;18.48;4.28;;;;;;;16.12;71.16;101689.41;4933482;29;20028;-76
2023/05/04 07:51:53;;;;;;;11.65;3.95;;;;;;;16.31;67.91;101689.47;4934831;29;20063;-77
2023/05/04 07:54:18;;;;;;;10.40;4.03;;;;;;;16.18;68.00;101697.09;4936846;29;20024;-77
2023/05/04 07:56:44;;;;;;;11.85;4.13;;;;;;;16.48;65.08;101687.94;4939749;29;20044;-77
2023/05/04 07:59:10;;;;;;;7.53;4.05;;;;;;;16.31;65.93;101685.84;4937945;29;20051;-77
2023/05/04 08:01:35;;;;;;;16.23;4.20;;;;;;;16.73;63.60;101689.34;4937467;29;20044;-76
2023/05/04 08:04:01;;;;;;;10.50;4.25;;;;;;;17.26;63.39;101676.19;4920739;29;20094;-76
2023/05/04 08:06:26;;;;;;;8.52;3.20;;;;;;;17.63;58.67;101679.09;4939025;29;20043;-77
2023/05/04 08:08:52;;;;;;;7.78;3.53;;;;;;;17.03;58.25;101681.13;4921194;29;20032;-77
2023/05/04 08:11:17;;;;;;;20.40;4.10;;;;;;;16.93;59.32;101680.25;4922652;29;20035;-76
2023/05/04 08:13:47;;;;;;;12.18;4.13;;;;;;;17.08;61.92;101682.44;4937724;29;20042;-77
2023/05/04 08:16:13;;;;;;;11.18;4.60;;;;;;;17.21;61.91;101679.41;4938321;29;20043;-76
2023/05/04 08:18:38;;;;;;;7.03;3.80;;;;;;;18.35;56.13;101673.97;4937119;29;20046;-77
2023/05/04 08:21:04;;;;;;;11.50;3.92;;;;;;;18.42;55.89;101676.16;4937656;29;20042;-77
2023/05/04 08:23:33;;;;;;;19.40;4.15;;;;;;;18.22;55.73;101670.69;4936243;29;20054;-77
2023/05/04 08:26:03;;;;;;;8.63;4.78;;;;;;;18.67;54.32;101674.56;4937491;29;20487;-77
2023/05/04 08:28:29;;;;;;;15.75;3.78;;;;;;;18.41;57.58;101666.06;4937290;29;20032;-77
2023/05/04 08:30:56;;;;;;;13.23;3.85;;;;;;;18.78;53.22;101670.72;4936673;29;20369;-77
2023/05/04 08:33:22;;;;;;;17.52;5.55;;;;;;;18.39;53.04;101669.00;4923086;29;20035;-77
2023/05/04 08:35:48;;;;;;;10.82;4.22;;;;;;;18.65;55.85;101663.63;4937954;29;20043;-77
2023/05/04 08:38:13;;;;;;;15.15;4.63;;;;;;;18.44;53.54;101669.41;4931131;29;20023;-77
2023/05/04 08:40:42;;;;;;;10.02;4.00;;;;;;;18.98;53.06;101671.50;4937214;29;20059;-77
2023/05/04 08:43:08;;;;;;;14.88;4.28;;;;;;;18.99;52.25;101657.44;4936048;29;20047;-77
2023/05/04 08:45:38;;;;;;;9.65;4.00;;;;;;;19.21;51.71;101663.56;4939053;29;20448;-77
2023/05/04 08:48:05;;;;;;;11.55;4.18;;;;;;;19.18;54.17;101659.19;4937024;29;20126;-77
2023/05/04 08:50:32;;;;;;;6.57;3.60;;;;;;;19.20;53.49;101659.03;4933422;29;20043;-78
2023/05/04 08:53:01;;;;;;;8.52;4.05;;;;;;;19.06;53.55;101644.69;4920800;29;20043;-78
2023/05/04 08:55:30;;;;;;;12.82;4.72;;;;;;;19.23;51.85;101642.06;4937110;29;20401;-78
2023/05/04 08:58:02;;;;;;;10.27;4.68;;;;;;;19.72;50.14;101645.25;4936906;29;20106;-78
2023/05/04 09:00:29;;;;;;;12.98;4.93;;;;;;;19.95;51.63;101648.38;4937530;29;20047;-77
2023/05/04 09:02:58;;;;;;;13.32;4.57;;;;;;;20.19;50.56;101638.47;4921628;29;20040;-77
2023/05/04 09:05:25;;;;;;;9.02;4.10;;;;;;;20.44;50.60;101641.38;4937956;29;20058;-77
2023/05/04 09:07:52;;;;;;;8.70;4.40;;;;;;;19.92;49.95;101632.06;4918706;29;20040;-78
2023/05/04 09:10:18;;;;;;;9.60;4.43;;;;;;;20.49;50.28;101627.81;4931479;29;20042;-77
2023/05/04 09:12:44;;;;;;;18.08;4.78;;;;;;;20.23;51.04;101617.63;4936698;29;20043;-77
2023/05/04 09:15:17;;;;;;;12.00;5.05;;;;;;;20.32;50.87;101622.19;4937298;29;20414;-78
2023/05/04 09:17:54;;;;;;;11.57;4.53;;;;;;;20.56;50.56;101617.75;4937502;29;20074;-77
2023/05/04 09:20:20;;;;;;;11.63;4.50;;;;;;;20.47;49.01;101619.66;4938699;29;20082;-78
2023/05/04 09:22:45;;;;;;;13.73;5.28;;;;;;;21.05;48.02;101619.81;4920054;28;20075;-78
2023/05/04 09:25:12;;;;;;;22.25;4.97;;;;;;;20.75;48.13;101613.84;4937530;29;20071;-77
2023/05/04 09:27:42;;;;;;;9.82;5.20;;;;;;;21.37;49.38;101609.78;4937077;29;20044;-78
2023/05/04 09:30:11;;;;;;;10.10;4.50;;;;;;;20.93;48.20;101616.50;4934368;29;20066;-77
2023/05/04 09:32:48;;;;;;;9.10;4.10;;;;;;;20.52;49.54;101614.44;4938129;29;20495;-78
2023/05/04 09:35:17;;;;;;;7.57;4.63;;;;;;;21.03;47.04;101610.78;4919902;29;20039;-78
2023/05/04 09:37:45;;;;;;;17.65;4.85;;;;;;;20.90;49.53;101611.28;4923408;29;20094;-78
2023/05/04 09:40:14;;;;;;;10.90;4.78;;;;;;;21.11;47.97;101611.66;4935919;29;20064;-78
2023/05/04 09:42:40;;;;;;;14.82;4.78;;;;;;;21.81;46.83;101606.63;4936435;29;20098;-79
2023/05/04 09:45:07;;;;;;;9.88;5.30;;;;;;;21.48;47.49;101609.47;4936581;29;20035;-78
2023/05/04 09:47:40;;;;;;;13.18;5.20;;;;;;;21.54;47.28;101608.72;4935204;29;20036;-78
2023/05/04 09:50:24;;;;;;;11.88;4.80;;;;;;;21.34;48.11;101593.41;4936614;29;20043;-78
2023/05/04 09:52:49;;;;;;;10.07;5.55;;;;;;;22.03;45.23;101583.53;4936598;29;20040;-78
2023/05/04 09:55:18;;;;;;;20.98;6.38;;;;;;;21.86;47.35;101579.06;4936157;29;20043;-78
2023/05/04 09:57:45;;;;;;;15.45;5.80;;;;;;;21.17;48.92;101584.16;4932471;29;20035;-78
2023/05/04 10:00:14;;;;;;;31.95;5.63;;;;;;;21.17;47.04;101587.81;4919840;29;20094;-78
2023/05/04 10:02:41;;;;;;;7.68;4.97;;;;;;;21.45;46.99;101577.19;4936436;29;20043;-78
2023/05/04 10:05:08;;;;;;;16.98;4.95;;;;;;;21.39;47.22;101569.53;4934589;29;20036;-78
2023/05/04 10:07:34;;;;;;;12.38;5.28;;;;;;;21.41;47.70;101570.22;4929336;29;20039;-77
2023/05/04 10:10:00;;;;;;;15.63;5.88;;;;;;;21.28;48.63;101569.88;4936443;29;20447;-77
2023/05/04 10:12:26;;;;;;;12.27;5.30;;;;;;;21.64;47.56;101555.59;4932906;29;20047;-78
2023/05/04 10:14:53;;;;;;;12.93;6.03;;;;;;;21.97;47.32;101567.53;4917850;29;20087;-78
2023/05/04 10:17:47;;;;;;;16.75;5.60;;;;;;;21.75;47.32;101562.72;4935410;29;20043;-78
2023/05/04 10:20:24;;;;;;;10.82;5.75;;;;;;;22.18;46.22;101552.97;4937834;29;20122;-77
2023/05/04 10:23:17;;;;;;;10.35;5.50;;;;;;;22.50;45.53;101553.91;4938489;29;20035;-78
2023/05/04 10:26:21;;;;;;;11.73;5.22;;;;;;;22.12;45.61;101559.28;4936915;29;20130;-78
2023/05/04 10:29:05;;;;;;;8.18;5.07;;;;;;;21.98;45.40;101548.88;4884092;29;20415;-78
2023/05/04 10:31:40;;;;;;;8.13;4.97;;;;;;;22.01;45.43;101542.94;4937177;29;20051;-78
2023/05/04 10:34:06;;;;;;;8.68;5.30;;;;;;;22.08;43.93;101540.31;4935880;29;20039;-78
2023/05/04 10:36:39;;;;;;;10.48;5.28;;;;;;;22.33;45.84;101530.81;4934685;29;20514;-78
2023/05/04 10:39:17;;;;;;;6.43;5.15;;;;;;;22.34;44.71;101529.75;4937171;29;20047;-78
2023/05/04 10:42:05;;;;;;;17.35;5.55;;;;;;;22.36;45.83;101507.25;4937123;29;20035;-78
2023/05/04 10:44:32;;;;;;;20.50;5.60;;;;;;;22.52;44.15;101515.50;4926619;29;20114;-78
2023/05/04 10:47:06;;;;;;;10.30;5.15;;;;;;;21.80;44.23;101494.22;4919429;29;20114;-78
2023/05/04 10:49:33;;;;;;;16.85;4.95;;;;;;;22.28;45.42;101490.50;4934056;29;20050;-78
2023/05/04 10:52:12;;;;;;;8.45;5.30;;;;;;;22.19;46.03;101490.56;4933126;29;20040;-78
2023/05/04 10:54:39;;;;;;;16.45;4.88;;;;;;;22.36;43.92;101498.88;4936535;29;20044;-78
2023/05/04 10:57:07;;;;;;;11.50;4.85;;;;;;;22.55;44.21;101490.03;4937197;29;20055;-78
2023/05/04 10:59:33;;;;;;;8.07;5.13;;;;;;;22.54;45.15;101476.25;4936404;29;20040;-77
2023/05/04 11:02:03;;;;;;;7.88;4.65;;;;;;;22.85;43.16;101469.72;4917262;29;20127;-78
2023/05/04 11:04:30;;;;;;;18.30;5.07;;;;;;;22.70;44.31;101464.09;4935741;29;20035;-79
2023/05/04 11:07:07;;;;;;;12.23;4.32;;;;;;;22.53;42.77;101457.75;4936747;29;20412;-78
2023/05/04 11:09:37;;;;;;;10.25;4.47;;;;;;;22.71;43.57;101440.69;4942225;29;20067;-78
2023/05/04 11:12:03;;;;;;;9.40;4.30;;;;;;;22.39;43.05;101451.91;4935743;29;20044;-78
2023/05/04 11:14:29;;;;;;;12.55;5.20;;;;;;;22.45;43.21;101435.47;4916295;29;20578;-78
2023/05/04 11:17:11;;;;;;;10.95;4.82;;;;;;;22.30;41.93;101435.41;4913238;29;20032;-78